Time;durP1;ratioP1;P1;durP2;ratioP2;P2;SDS_P1;SDS_P2;PMS_P1;PMS_P2;Temp;Humidity;BMP_temperature;BMP_pressure;BME280_temperature;BME280_humidity;BME280_pressure;Samples;Min_cycle;Max_cycle;Signal;HPM_P1;HPM_P2
2022/08/16 00:01:49;;;;;;;19.05;17.25;;;21.10;99.90;;;;;;5071221;28;20033;-27
2022/08/16 00:04:15;;;;;;;18.40;16.80;;;21.00;99.90;;;;;;5071101;28;20036;-26
2022/08/16 00:06:42;;;;;;;17.77;16.17;;;21.00;99.90;;;;;;5071341;28;20040;-27
2022/08/16 00:09:09;;;;;;;18.08;16.35;;;21.00;99.90;;;;;;5071471;28;20042;-26
2022/08/16 00:11:35;;;;;;;18.95;17.23;;;21.00;99.90;;;;;;5071856;28;20136;-25
2022/08/16 00:14:02;;;;;;;18.15;16.65;;;21.00;99.90;;;;;;5071366;28;20062;-26
2022/08/16 00:16:31;;;;;;;19.30;17.58;;;20.90;99.90;;;;;;5071218;28;20052;-26
2022/08/16 00:18:58;;;;;;;20.40;18.70;;;20.90;99.90;;;;;;5071657;28;20386;-26
2022/08/16 00:21:24;;;;;;;17.60;15.90;;;20.90;99.90;;;;;;5071393;28;20044;-25
2022/08/16 00:23:53;;;;;;;19.63;17.80;;;20.90;99.90;;;;;;5071392;28;20390;-27
2022/08/16 00:26:19;;;;;;;20.80;19.00;;;20.90;99.90;;;;;;5071335;28;20120;-25
2022/08/16 00:28:45;;;;;;;21.33;19.45;;;20.90;99.90;;;;;;5071240;28;20450;-26
2022/08/16 00:31:10;;;;;;;20.45;18.63;;;20.90;99.90;;;;;;5071060;28;20040;-26
2022/08/16 00:33:36;;;;;;;20.33;18.48;;;20.90;99.90;;;;;;5071039;28;20041;-26
2022/08/16 00:36:02;;;;;;;19.58;17.88;;;20.90;99.90;;;;;;5054492;28;20139;-25
2022/08/16 00:38:28;;;;;;;22.80;20.75;;;20.90;99.90;;;;;;5071126;28;20048;-27
2022/08/16 00:40:54;;;;;;;20.60;18.65;;;20.80;99.90;;;;;;5071267;28;20135;-26
2022/08/16 00:43:25;;;;;;;21.48;19.58;;;20.80;99.90;;;;;;5071862;28;20040;-26
2022/08/16 00:46:27;;;;;;;20.83;18.80;;;20.80;99.90;;;;;;5070967;28;20037;-27
2022/08/16 00:48:52;;;;;;;23.25;21.05;;;20.80;99.90;;;;;;5064716;28;20094;-30
2022/08/16 00:51:20;;;;;;;23.10;21.00;;;20.80;99.90;;;;;;5071222;28;20040;-27
2022/08/16 00:53:48;;;;;;;21.40;19.65;;;20.80;99.90;;;;;;5070987;28;20041;-26
2022/08/16 00:56:18;;;;;;;23.10;20.80;;;20.70;99.90;;;;;;5070903;28;20500;-26
2022/08/16 00:58:47;;;;;;;21.35;19.58;;;20.70;99.90;;;;;;5070408;28;20116;-26
2022/08/16 01:01:15;;;;;;;23.00;20.70;;;20.70;99.90;;;;;;5070619;28;20036;-27
2022/08/16 01:03:43;;;;;;;25.10;22.67;;;20.70;99.90;;;;;;5070539;28;20037;-25
2022/08/16 01:06:11;;;;;;;26.30;23.67;;;20.70;99.90;;;;;;5070992;28;20597;-26
2022/08/16 01:08:38;;;;;;;23.48;21.38;;;20.60;99.90;;;;;;5070326;28;20036;-25
2022/08/16 01:11:06;;;;;;;24.42;21.98;;;20.70;99.90;;;;;;5070572;28;20137;-26
2022/08/16 01:13:34;;;;;;;24.52;22.15;;;20.60;99.90;;;;;;5070392;28;20046;-26
2022/08/16 01:16:06;;;;;;;22.90;20.80;;;20.60;99.90;;;;;;5070443;28;20091;-25
2022/08/16 01:18:39;;;;;;;23.63;21.45;;;20.60;99.90;;;;;;5070435;28;20470;-27
2022/08/16 01:21:17;;;;;;;;;;;20.60;99.90;;;;;;5070524;28;20394;-26
2022/08/16 01:24:09;;;;;;;23.35;21.15;;;20.60;99.90;;;;;;5070108;28;19916;-27
2022/08/16 01:26:37;;;;;;;22.30;20.17;;;20.60;99.90;;;;;;5070416;28;20521;-26
2022/08/16 01:29:09;;;;;;;23.67;21.45;;;20.50;99.90;;;;;;5065308;28;20187;-27
2022/08/16 01:31:35;;;;;;;26.25;23.65;;;20.50;99.90;;;;;;5053338;28;20033;-26
2022/08/16 01:34:01;;;;;;;25.33;22.75;;;20.50;99.90;;;;;;5053540;28;20040;-26
2022/08/16 01:36:28;;;;;;;24.70;22.33;;;20.50;99.90;;;;;;5053640;28;20043;-26
2022/08/16 01:38:54;;;;;;;27.02;24.42;;;20.50;99.90;;;;;;5036617;28;20051;-27
2022/08/16 01:41:23;;;;;;;24.80;22.45;;;20.40;99.90;;;;;;5053372;28;20111;-25
2022/08/16 01:43:50;;;;;;;26.42;24.02;;;20.40;99.90;;;;;;5053140;28;20489;-27
2022/08/16 01:46:32;;;;;;;22.77;20.85;;;20.30;99.90;;;;;;5053374;28;20494;-26
2022/08/16 01:49:12;;;;;;;22.42;20.52;;;20.30;99.90;;;;;;5053165;28;20072;-27
2022/08/16 01:51:40;;;;;;;24.00;21.60;;;20.20;99.90;;;;;;5052094;28;20041;-26
2022/08/16 01:54:06;;;;;;;25.77;23.45;;;20.20;99.90;;;;;;5053114;28;20492;-26
2022/08/16 01:56:33;;;;;;;24.35;22.10;;;20.20;99.90;;;;;;5053124;28;20121;-26
2022/08/16 01:59:03;;;;;;;25.95;23.50;;;20.10;99.90;;;;;;5053132;28;20097;-27
2022/08/16 02:01:29;;;;;;;27.05;24.65;;;20.10;99.90;;;;;;5052987;28;20041;-26
2022/08/16 02:03:56;;;;;;;25.60;23.40;;;20.00;99.90;;;;;;5053331;28;20032;-26
2022/08/16 02:06:22;;;;;;;26.95;24.42;;;19.90;99.90;;;;;;5069549;28;20037;-27
2022/08/16 02:08:49;;;;;;;28.05;25.33;;;19.90;99.90;;;;;;5050840;28;20198;-26
2022/08/16 02:11:15;;;;;;;26.75;24.27;;;19.80;99.90;;;;;;5051827;28;20482;-26
2022/08/16 02:13:41;;;;;;;25.67;23.40;;;19.80;99.90;;;;;;5053204;28;20046;-25
2022/08/16 02:16:09;;;;;;;27.15;24.65;;;19.70;99.90;;;;;;5053223;28;20036;-26
2022/08/16 02:18:36;;;;;;;28.05;25.58;;;19.70;99.90;;;;;;5053323;28;20037;-26
2022/08/16 02:21:03;;;;;;;27.90;25.30;;;19.70;99.90;;;;;;5053067;28;20068;-26
2022/08/16 02:23:28;;;;;;;28.13;25.42;;;19.70;99.90;;;;;;5053046;28;20094;-26
2022/08/16 02:25:54;;;;;;;29.50;26.70;;;19.60;99.90;;;;;;5054524;28;20450;-28
2022/08/16 02:28:22;;;;;;;28.23;25.40;;;19.60;99.90;;;;;;5056924;28;20036;-25
2022/08/16 02:30:48;;;;;;;26.85;24.45;;;19.50;99.90;;;;;;5056589;28;20039;-25
2022/08/16 02:33:13;;;;;;;28.73;26.05;;;19.40;99.90;;;;;;5056132;28;20119;-25
2022/08/16 02:35:40;;;;;;;28.15;25.58;;;19.40;99.90;;;;;;5056314;28;20091;-27
2022/08/16 02:38:05;;;;;;;27.58;25.00;;;19.30;99.90;;;;;;5056194;28;20136;-27
2022/08/16 02:40:32;;;;;;;29.15;26.35;;;19.30;99.90;;;;;;5056201;28;20119;-25
2022/08/16 02:42:59;;;;;;;29.45;26.55;;;19.30;99.90;;;;;;5056169;28;20045;-26
2022/08/16 02:45:26;;;;;;;28.52;25.90;;;19.20;99.90;;;;;;5055913;28;20501;-26
2022/08/16 02:47:52;;;;;;;28.95;26.23;;;19.20;99.90;;;;;;5056615;28;20036;-25
2022/08/16 02:50:19;;;;;;;31.75;28.85;;;19.20;99.90;;;;;;5056231;28;20040;-28
2022/08/16 02:52:45;;;;;;;30.77;27.95;;;19.20;99.90;;;;;;5074131;28;20427;-26
2022/08/16 02:55:11;;;;;;;29.90;27.00;;;19.20;99.90;;;;;;5056433;28;20051;-25
2022/08/16 02:57:38;;;;;;;29.00;26.30;;;19.20;99.90;;;;;;5055959;28;20076;-26
2022/08/16 03:00:08;;;;;;;32.55;29.27;;;19.20;99.90;;;;;;5039534;28;20505;-25
2022/08/16 03:02:35;;;;;;;31.48;28.58;;;19.20;99.90;;;;;;5056010;28;20093;-26
2022/08/16 03:05:01;;;;;;;31.55;28.35;;;19.20;99.90;;;;;;5056028;28;20428;-25
2022/08/16 03:07:27;;;;;;;32.25;29.15;;;19.20;99.90;;;;;;5056004;28;20029;-25
2022/08/16 03:09:53;;;;;;;31.05;28.10;;;19.10;99.90;;;;;;5055783;28;20418;-26
2022/08/16 03:12:18;;;;;;;31.33;28.33;;;19.10;99.90;;;;;;5055994;28;20497;-27
2022/08/16 03:14:45;;;;;;;30.27;27.23;;;19.00;99.90;;;;;;5055447;28;20044;-26
2022/08/16 03:17:11;;;;;;;30.70;27.90;;;19.00;99.90;;;;;;5055754;28;20127;-25
2022/08/16 03:19:36;;;;;;;31.30;28.40;;;19.00;99.90;;;;;;5055871;28;20119;-27
2022/08/16 03:22:03;;;;;;;32.28;28.98;;;19.00;99.90;;;;;;5055143;28;20036;-27
2022/08/16 03:24:29;;;;;;;33.10;30.00;;;19.00;99.90;;;;;;5055667;28;20040;-25
2022/08/16 03:26:58;;;;;;;33.22;30.15;;;19.00;99.90;;;;;;5055723;28;20024;-28
2022/08/16 03:29:30;;;;;;;31.77;28.65;;;18.90;99.90;;;;;;5055392;28;20090;-26
2022/08/16 03:31:58;;;;;;;33.95;30.70;;;18.90;99.90;;;;;;5055743;28;20123;-26
2022/08/16 03:34:23;;;;;;;33.40;30.20;;;18.90;99.90;;;;;;5055589;28;20044;-28
2022/08/16 03:36:49;;;;;;;32.25;29.13;;;18.90;99.90;;;;;;5054419;28;20563;-27
2022/08/16 03:39:15;;;;;;;33.83;30.45;;;18.90;99.90;;;;;;5055184;28;20044;-26
2022/08/16 03:41:41;;;;;;;33.72;30.50;;;18.80;99.90;;;;;;5055011;28;20093;-28
2022/08/16 03:44:07;;;;;;;31.48;28.48;;;18.80;99.90;;;;;;5055418;28;20071;-26
2022/08/16 03:46:34;;;;;;;34.25;31.02;;;18.80;99.90;;;;;;5054873;28;20402;-25
2022/08/16 03:49:00;;;;;;;36.95;33.28;;;18.80;99.90;;;;;;5055167;28;20048;-25
2022/08/16 03:51:26;;;;;;;36.00;32.58;;;18.70;99.90;;;;;;5055157;28;20131;-25
2022/08/16 03:53:52;;;;;;;36.10;32.70;;;18.70;99.90;;;;;;5055007;28;20616;-27
2022/08/16 03:56:19;;;;;;;36.05;32.53;;;18.80;99.90;;;;;;5054809;28;20047;-27
2022/08/16 03:58:45;;;;;;;35.00;31.50;;;18.70;99.90;;;;;;5054629;28;20045;-27
2022/08/16 04:01:11;;;;;;;35.75;32.30;;;18.70;99.90;;;;;;5054925;28;20032;-26
2022/08/16 04:03:37;;;;;;;35.40;31.80;;;18.70;99.90;;;;;;5054890;28;20028;-27
2022/08/16 04:06:03;;;;;;;34.63;31.20;;;18.70;99.90;;;;;;5054851;28;20063;-27
2022/08/16 04:08:46;;;;;;;33.17;29.92;;;18.70;99.90;;;;;;5055438;28;20088;-27
2022/08/16 04:11:13;;;;;;;32.08;28.90;;;18.70;99.90;;;;;;5072426;28;20040;-28
2022/08/16 04:13:38;;;;;;;33.33;30.10;;;18.70;99.90;;;;;;5054362;28;20044;-26
2022/08/16 04:16:05;;;;;;;32.80;29.40;;;18.60;99.90;;;;;;5037798;28;20036;-25
2022/08/16 04:18:31;;;;;;;31.15;28.00;;;18.60;99.90;;;;;;5054136;28;20044;-27
2022/08/16 04:20:57;;;;;;;31.52;28.33;;;18.50;99.90;;;;;;5054727;28;20040;-26
2022/08/16 04:23:22;;;;;;;31.83;28.63;;;18.50;99.90;;;;;;5054093;28;20044;-27
2022/08/16 04:25:49;;;;;;;32.08;28.77;;;18.50;99.90;;;;;;5054247;28;20036;-27
2022/08/16 04:28:15;;;;;;;31.75;28.55;;;18.60;99.90;;;;;;5054302;28;20037;-25
2022/08/16 04:30:41;;;;;;;30.50;27.58;;;18.50;99.90;;;;;;5054220;28;20081;-26
2022/08/16 04:33:07;;;;;;;30.70;27.60;;;18.60;99.90;;;;;;5054324;28;20028;-24
2022/08/16 04:35:33;;;;;;;31.25;28.17;;;18.50;99.90;;;;;;5054255;28;20043;-27
2022/08/16 04:37:59;;;;;;;33.65;29.92;;;18.50;99.90;;;;;;5053421;28;20036;-25
2022/08/16 04:40:26;;;;;;;32.50;29.08;;;18.50;99.90;;;;;;5052343;28;20043;-25
2022/08/16 04:42:53;;;;;;;30.63;27.52;;;18.50;99.90;;;;;;5069121;28;20085;-27
2022/08/16 04:45:19;;;;;;;32.75;29.55;;;18.50;99.90;;;;;;5070071;28;20044;-27
2022/08/16 04:47:45;;;;;;;32.53;29.08;;;18.40;99.90;;;;;;5070091;28;20051;-26
2022/08/16 04:50:12;;;;;;;31.67;28.48;;;18.50;99.90;;;;;;5070160;28;20048;-25
2022/08/16 04:52:41;;;;;;;30.70;27.50;;;18.50;99.90;;;;;;5071073;28;20130;-28
2022/08/16 04:55:13;;;;;;;31.48;28.05;;;18.50;99.90;;;;;;5070332;28;20090;-25
2022/08/16 04:57:39;;;;;;;30.08;27.00;;;18.50;99.90;;;;;;5070535;28;20037;-24
2022/08/16 05:00:12;;;;;;;28.65;25.55;;;18.50;99.90;;;;;;5070045;28;20059;-24
2022/08/16 05:02:39;;;;;;;27.65;24.95;;;18.60;99.90;;;;;;5053656;28;20123;-26
2022/08/16 05:05:05;;;;;;;28.90;25.90;;;18.60;99.90;;;;;;5070368;28;20037;-24
2022/08/16 05:07:31;;;;;;;28.65;25.60;;;18.60;99.90;;;;;;5070068;28;20059;-24
2022/08/16 05:09:57;;;;;;;29.55;26.55;;;18.60;99.90;;;;;;5070467;28;20119;-24
2022/08/16 05:12:23;;;;;;;29.10;25.88;;;18.60;99.90;;;;;;5069882;28;20052;-24
2022/08/16 05:14:48;;;;;;;29.73;26.48;;;18.60;99.90;;;;;;5069686;28;20044;-24
2022/08/16 05:17:14;;;;;;;30.67;27.50;;;18.60;99.90;;;;;;5069850;28;20041;-24
2022/08/16 05:19:40;;;;;;;27.15;24.38;;;18.70;99.90;;;;;;5069373;28;20120;-25
2022/08/16 05:22:06;;;;;;;29.00;25.95;;;18.70;99.90;;;;;;5069092;28;20044;-25
2022/08/16 05:24:31;;;;;;;29.08;26.02;;;18.70;99.90;;;;;;5069476;28;20073;-24
2022/08/16 05:26:57;;;;;;;28.38;25.38;;;18.80;99.90;;;;;;5069855;28;20028;-25
2022/08/16 05:29:23;;;;;;;27.98;25.20;;;18.80;99.90;;;;;;5070029;28;20127;-23
2022/08/16 05:31:49;;;;;;;28.42;25.48;;;18.80;99.90;;;;;;5069695;28;20036;-25
2022/08/16 05:34:15;;;;;;;27.75;24.98;;;18.80;99.90;;;;;;5069573;28;20040;-25
2022/08/16 05:36:41;;;;;;;29.42;26.38;;;18.90;99.90;;;;;;5069706;28;20040;-26
2022/08/16 05:39:08;;;;;;;28.40;25.60;;;18.90;99.90;;;;;;5069679;28;20524;-25
2022/08/16 05:41:34;;;;;;;30.27;26.88;;;19.00;99.90;;;;;;5069810;28;20127;-26
2022/08/16 05:44:00;;;;;;;30.25;27.23;;;19.00;99.90;;;;;;5069596;28;20075;-26
2022/08/16 05:46:26;;;;;;;33.05;26.30;;;19.10;99.90;;;;;;5069477;28;20045;-25
2022/08/16 05:48:52;;;;;;;29.30;26.40;;;19.20;99.90;;;;;;5069640;28;20043;-24
2022/08/16 05:51:18;;;;;;;30.30;27.20;;;19.30;99.90;;;;;;5069805;28;20040;-24
2022/08/16 05:53:44;;;;;;;32.08;28.60;;;19.40;99.90;;;;;;5069278;28;20037;-25
2022/08/16 05:56:11;;;;;;;29.80;26.60;;;19.50;99.90;;;;;;5070084;28;20047;-25
2022/08/16 05:58:36;;;;;;;30.30;27.30;;;19.60;99.90;;;;;;5070112;28;20044;-25
2022/08/16 06:01:03;;;;;;;30.00;26.88;;;19.80;99.90;;;;;;5071676;28;20389;-24
2022/08/16 06:03:28;;;;;;;28.65;25.58;;;19.90;99.90;;;;;;5057352;28;20052;-26
2022/08/16 06:05:54;;;;;;;30.75;26.40;;;20.10;99.90;;;;;;5057467;28;20040;-26
2022/08/16 06:08:20;;;;;;;28.25;25.35;;;20.30;99.90;;;;;;5056709;28;20032;-24
2022/08/16 06:10:46;;;;;;;28.85;25.45;;;20.40;99.90;;;;;;5057171;28;20040;-24
2022/08/16 06:13:11;;;;;;;29.92;26.92;;;20.50;99.90;;;;;;5056929;28;20489;-24
2022/08/16 06:15:37;;;;;;;28.35;25.20;;;20.70;99.90;;;;;;5056976;28;20574;-25
2022/08/16 06:18:03;;;;;;;27.27;24.45;;;20.70;99.90;;;;;;5056910;28;20037;-24
2022/08/16 06:20:29;;;;;;;26.83;24.02;;;20.80;99.90;;;;;;5056250;28;20401;-26
2022/08/16 06:22:56;;;;;;;28.48;25.55;;;20.90;99.90;;;;;;5056223;28;20040;-25
2022/08/16 06:25:24;;;;;;;27.88;25.05;;;20.90;99.90;;;;;;5056333;28;20033;-25
2022/08/16 06:27:51;;;;;;;25.98;23.52;;;20.90;99.90;;;;;;5056687;28;20036;-25
2022/08/16 06:30:17;;;;;;;25.92;23.15;;;20.90;99.90;;;;;;5056420;28;20044;-24
2022/08/16 06:32:43;;;;;;;25.50;22.88;;;20.90;99.90;;;;;;5056217;28;20098;-25
2022/08/16 06:35:10;;;;;;;25.17;22.60;;;21.00;99.90;;;;;;5056770;28;20123;-26
2022/08/16 06:37:36;;;;;;;25.65;22.95;;;21.00;99.90;;;;;;5056745;28;20656;-24
2022/08/16 06:40:03;;;;;;;26.17;23.48;;;21.00;99.90;;;;;;5056497;28;20124;-24
2022/08/16 06:42:29;;;;;;;27.45;24.48;;;21.10;99.90;;;;;;5056179;28;20045;-25
2022/08/16 06:44:55;;;;;;;24.98;22.33;;;21.10;99.90;;;;;;5056321;28;20040;-24
2022/08/16 06:47:21;;;;;;;24.70;22.30;;;21.10;99.90;;;;;;5056429;28;20044;-26
2022/08/16 06:49:46;;;;;;;25.13;22.67;;;21.10;99.90;;;;;;5055919;28;20044;-25
2022/08/16 06:52:12;;;;;;;26.15;22.15;;;21.20;99.90;;;;;;5056153;28;20040;-26
2022/08/16 06:54:38;;;;;;;24.90;21.88;;;21.30;99.90;;;;;;5056211;28;20047;-25
2022/08/16 06:57:05;;;;;;;24.42;21.95;;;21.30;99.90;;;;;;5056189;28;20049;-25
2022/08/16 06:59:31;;;;;;;23.67;21.23;;;21.20;99.90;;;;;;5055891;28;20040;-27
2022/08/16 07:01:58;;;;;;;23.38;21.10;;;21.20;99.90;;;;;;5056127;28;20052;-25
2022/08/16 07:04:24;;;;;;;24.05;21.65;;;21.20;99.90;;;;;;5055802;28;20412;-24
2022/08/16 07:06:50;;;;;;;24.25;22.02;;;21.10;99.90;;;;;;5055566;28;20115;-25
2022/08/16 07:09:16;;;;;;;23.98;21.63;;;21.20;99.90;;;;;;5055705;28;20124;-25
2022/08/16 07:11:42;;;;;;;22.77;20.48;;;21.20;99.90;;;;;;5055498;28;20058;-25
2022/08/16 07:14:08;;;;;;;23.20;20.92;;;21.20;99.90;;;;;;5055798;28;20472;-25
2022/08/16 07:16:34;;;;;;;23.50;21.15;;;21.30;99.90;;;;;;5055886;28;20425;-25
2022/08/16 07:19:00;;;;;;;25.27;21.67;;;21.30;99.90;;;;;;5055274;28;20040;-25
2022/08/16 07:21:27;;;;;;;23.77;21.38;;;21.40;99.90;;;;;;5055680;28;20028;-25
2022/08/16 07:23:52;;;;;;;22.70;20.30;;;21.60;99.90;;;;;;5056004;28;20115;-25
2022/08/16 07:26:21;;;;;;;24.85;22.30;;;21.70;99.90;;;;;;5055862;28;20604;-26
2022/08/16 07:28:47;;;;;;;25.13;22.48;;;21.80;99.90;;;;;;5039135;28;20051;-26
2022/08/16 07:31:14;;;;;;;23.77;21.48;;;21.90;99.90;;;;;;5056147;28;20048;-26
2022/08/16 07:33:41;;;;;;;24.92;22.58;;;22.00;99.90;;;;;;5068187;28;20119;-25
2022/08/16 07:36:08;;;;;;;26.58;23.73;;;22.20;99.90;;;;;;5072304;28;20044;-25
2022/08/16 07:38:34;;;;;;;24.83;22.42;;;22.40;99.90;;;;;;5063333;28;20036;-26
2022/08/16 07:41:00;;;;;;;22.92;20.73;;;22.60;99.90;;;;;;5055333;28;20032;-25
2022/08/16 07:43:26;;;;;;;24.98;22.67;;;22.70;99.90;;;;;;5055772;28;20119;-25
2022/08/16 07:45:52;;;;;;;25.55;23.25;;;23.00;99.90;;;;;;5055385;28;20443;-26
2022/08/16 07:48:19;;;;;;;24.75;22.38;;;23.20;99.90;;;;;;5055845;28;20045;-26
2022/08/16 07:50:45;;;;;;;23.50;21.40;;;23.40;99.90;;;;;;5055455;28;20040;-25
2022/08/16 07:53:14;;;;;;;23.60;21.40;;;23.60;99.90;;;;;;5055526;28;20117;-25
2022/08/16 07:55:40;;;;;;;22.73;20.52;;;23.80;99.90;;;;;;5055167;28;20132;-25
2022/08/16 07:58:06;;;;;;;24.42;21.95;;;24.00;99.90;;;;;;5054971;28;20036;-26
2022/08/16 08:00:36;;;;;;;23.92;21.35;;;24.30;99.90;;;;;;5054963;28;20044;-25
2022/08/16 08:03:03;;;;;;;22.95;20.70;;;24.40;99.90;;;;;;5054829;28;20033;-25
2022/08/16 08:05:28;;;;;;;23.92;21.52;;;24.50;99.90;;;;;;5071537;28;20314;-27
2022/08/16 08:07:54;;;;;;;23.77;21.58;;;24.50;99.90;;;;;;5055229;28;20115;-27
2022/08/16 08:10:22;;;;;;;23.67;21.45;;;24.70;99.90;;;;;;5054860;28;20040;-25
2022/08/16 08:12:50;;;;;;;22.63;20.40;;;24.90;99.90;;;;;;5055100;28;20033;-27
2022/08/16 08:15:17;;;;;;;22.60;20.50;;;25.00;99.90;;;;;;5055143;28;20120;-27
2022/08/16 08:17:43;;;;;;;22.88;20.45;;;25.20;99.90;;;;;;5037901;28;20048;-26
2022/08/16 08:20:12;;;;;;;22.33;20.38;;;25.30;99.90;;;;;;5054605;28;20045;-25
2022/08/16 08:22:38;;;;;;;21.13;19.05;;;25.20;99.90;;;;;;5054528;28;20044;-25
2022/08/16 08:25:06;;;;;;;19.75;17.98;;;25.30;99.90;;;;;;5054227;28;20258;-26
2022/08/16 08:27:33;;;;;;;22.48;20.38;;;25.50;99.90;;;;;;5054650;28;20033;-25
2022/08/16 08:29:58;;;;;;;22.45;20.35;;;25.70;99.90;;;;;;5054479;28;20043;-27
2022/08/16 08:32:27;;;;;;;22.77;20.50;;;25.80;99.90;;;;;;5054808;28;20032;-26
2022/08/16 08:34:57;;;;;;;23.13;20.58;;;25.90;99.90;;;;;;5037594;28;20104;-25
2022/08/16 08:37:25;;;;;;;24.35;22.05;;;26.00;99.90;;;;;;5037879;28;20505;-26
2022/08/16 08:39:51;;;;;;;24.50;22.00;;;26.10;99.90;;;;;;5054232;28;20124;-27
2022/08/16 08:42:17;;;;;;;23.88;21.63;;;26.20;99.90;;;;;;5054112;28;20120;-27
2022/08/16 08:44:43;;;;;;;24.75;21.52;;;26.40;99.90;;;;;;5072004;28;20103;-27
2022/08/16 08:47:09;;;;;;;22.23;20.02;;;26.40;99.90;;;;;;5054321;28;20055;-25
2022/08/16 08:49:36;;;;;;;22.85;20.65;;;26.50;99.90;;;;;;5053922;28;20043;-26
2022/08/16 08:52:04;;;;;;;22.35;20.08;;;26.70;99.90;;;;;;5054148;28;20048;-25
2022/08/16 08:54:29;;;;;;;20.85;18.73;;;26.90;99.90;;;;;;5053718;28;20052;-26
2022/08/16 08:56:55;;;;;;;22.08;20.10;;;27.00;99.90;;;;;;5054107;28;20045;-26
2022/08/16 08:59:21;;;;;;;20.08;18.10;;;27.10;99.90;;;;;;5053745;28;20074;-25
2022/08/16 09:01:48;;;;;;;18.73;17.02;;;27.40;99.90;;;;;;5037299;28;20041;-25
2022/08/16 09:04:14;;;;;;;19.80;17.65;;;27.60;99.90;;;;;;5053957;28;20037;-25
2022/08/16 09:06:41;;;;;;;18.90;16.77;;;27.70;99.70;;;;;;5053982;28;20037;-26
2022/08/16 09:09:08;;;;;;;18.20;16.40;;;27.90;99.20;;;;;;5053869;28;20114;-25
2022/08/16 09:11:35;;;;;;;18.60;16.85;;;28.00;98.40;;;;;;5054125;28;20036;-26
2022/08/16 09:14:01;;;;;;;19.42;17.60;;;28.20;97.70;;;;;;5054063;28;20122;-27
2022/08/16 09:16:27;;;;;;;18.60;16.67;;;28.40;97.00;;;;;;5053928;28;20043;-26
2022/08/16 09:18:54;;;;;;;18.17;16.40;;;28.50;96.90;;;;;;5054179;28;20041;-26
2022/08/16 09:21:20;;;;;;;19.70;17.95;;;28.70;95.20;;;;;;5053906;28;20490;-27
2022/08/16 09:23:46;;;;;;;18.13;16.63;;;28.70;93.60;;;;;;5053470;28;20066;-27
2022/08/16 09:26:16;;;;;;;16.83;15.18;;;28.70;92.20;;;;;;5053795;28;20059;-27
2022/08/16 09:28:44;;;;;;;14.98;13.65;;;28.90;92.00;;;;;;5053930;28;20248;-28
2022/08/16 09:31:14;;;;;;;14.48;13.10;;;29.00;92.60;;;;;;5053652;28;20454;-27
2022/08/16 09:33:41;;;;;;;15.70;14.25;;;29.30;90.30;;;;;;5053540;28;20500;-27
2022/08/16 09:36:08;;;;;;;12.93;11.57;;;29.50;80.60;;;;;;5053415;28;20121;-26
2022/08/16 09:38:34;;;;;;;14.98;13.73;;;29.60;81.90;;;;;;5053327;28;20032;-27
2022/08/16 09:41:04;;;;;;;13.15;11.93;;;29.70;74.70;;;;;;5053182;28;20040;-27
2022/08/16 09:43:32;;;;;;;14.70;12.95;;;29.70;71.60;;;;;;5053576;28;20033;-28
2022/08/16 09:45:58;;;;;;;14.32;13.02;;;29.80;71.10;;;;;;5053614;28;20032;-26
2022/08/16 09:48:24;;;;;;;10.45;9.45;;;29.90;72.40;;;;;;5053450;28;20044;-28
2022/08/16 09:50:50;;;;;;;10.85;9.95;;;30.00;67.00;;;;;;5069898;28;20048;-27
2022/08/16 09:53:19;;;;;;;10.38;9.48;;;29.90;64.70;;;;;;5069917;28;20239;-27
2022/08/16 09:55:51;;;;;;;10.02;9.10;;;30.00;64.00;;;;;;5070246;28;20509;-26
2022/08/16 09:58:19;;;;;;;9.27;8.53;;;30.10;62.90;;;;;;5069995;28;20071;-27
2022/08/16 10:00:45;;;;;;;10.38;9.38;;;30.40;65.10;;;;;;5070119;28;20038;-26
2022/08/16 10:03:10;;;;;;;9.63;8.82;;;30.50;62.30;;;;;;5069671;28;20045;-28
2022/08/16 10:05:36;;;;;;;10.02;9.13;;;30.70;60.10;;;;;;5069884;28;20040;-26
2022/08/16 10:08:03;;;;;;;10.77;9.98;;;30.80;61.70;;;;;;5053021;28;20110;-27
2022/08/16 10:10:30;;;;;;;9.90;9.00;;;31.00;60.30;;;;;;5069932;28;20052;-27
2022/08/16 10:13:11;;;;;;;9.63;8.90;;;31.30;59.40;;;;;;5070011;28;20040;-26
2022/08/16 10:15:39;;;;;;;9.07;8.38;;;31.70;56.70;;;;;;5070041;28;20461;-27
2022/08/16 10:18:08;;;;;;;9.43;8.73;;;31.90;54.80;;;;;;5069743;28;20040;-28
2022/08/16 10:20:43;;;;;;;9.20;8.30;;;32.00;53.70;;;;;;5049589;28;20041;-28
2022/08/16 10:23:17;;;;;;;7.25;6.63;;;32.00;52.80;;;;;;5032954;28;20068;-26
2022/08/16 10:25:45;;;;;;;9.05;8.25;;;32.10;52.50;;;;;;5032891;28;20041;-27
2022/08/16 10:28:12;;;;;;;8.05;7.43;;;32.00;51.90;;;;;;5033390;28;20029;-27
2022/08/16 10:30:41;;;;;;;7.10;6.45;;;32.10;51.60;;;;;;5037169;28;20082;-27
2022/08/16 10:33:07;;;;;;;6.82;6.15;;;32.10;51.30;;;;;;5069754;28;20433;-27
2022/08/16 10:35:33;;;;;;;7.32;6.60;;;32.20;50.90;;;;;;5052833;28;20047;-27
2022/08/16 10:37:59;;;;;;;9.20;7.38;;;32.10;50.30;;;;;;5069664;28;20041;-28
2022/08/16 10:40:24;;;;;;;8.70;7.80;;;32.00;50.10;;;;;;5069902;28;20131;-27
2022/08/16 10:42:50;;;;;;;8.43;7.50;;;32.10;49.80;;;;;;5069378;28;20044;-27
2022/08/16 10:45:17;;;;;;;9.23;8.52;;;32.00;50.40;;;;;;5069697;28;20474;-28
2022/08/16 10:47:43;;;;;;;10.82;9.73;;;31.90;50.00;;;;;;5072491;28;20413;-27
2022/08/16 10:50:09;;;;;;;8.77;8.00;;;31.90;50.10;;;;;;5073165;28;20032;-28
2022/08/16 10:52:35;;;;;;;9.70;9.00;;;32.20;50.20;;;;;;5073424;28;20048;-26
2022/08/16 10:55:01;;;;;;;8.43;7.63;;;32.30;50.70;;;;;;5073269;28;20474;-27
2022/08/16 10:57:27;;;;;;;6.78;6.25;;;32.70;49.90;;;;;;5073512;28;20393;-28
2022/08/16 10:59:54;;;;;;;7.05;6.38;;;32.70;48.40;;;;;;5073435;28;20481;-27
2022/08/16 11:02:21;;;;;;;7.22;4.97;;;32.80;48.30;;;;;;5073018;28;20044;-27
2022/08/16 11:04:47;;;;;;;6.80;6.28;;;33.00;46.90;;;;;;5073063;28;20042;-27
2022/08/16 11:07:13;;;;;;;6.38;5.18;;;32.90;47.10;;;;;;5072876;28;20040;-26
2022/08/16 11:09:39;;;;;;;7.10;6.40;;;33.00;47.20;;;;;;5072910;28;20545;-27
2022/08/16 11:12:06;;;;;;;7.88;6.63;;;33.10;46.80;;;;;;5072812;28;20075;-29
2022/08/16 11:14:34;;;;;;;6.50;6.03;;;33.20;46.60;;;;;;5072691;28;20043;-27
2022/08/16 11:17:04;;;;;;;5.93;5.28;;;33.30;45.40;;;;;;5072952;28;20067;-28
2022/08/16 11:19:30;;;;;;;6.05;5.55;;;33.20;45.50;;;;;;5072927;28;20487;-26
2022/08/16 11:21:56;;;;;;;6.63;5.35;;;33.30;44.90;;;;;;5056197;28;20476;-27
2022/08/16 11:24:22;;;;;;;5.20;4.80;;;33.40;45.20;;;;;;5072427;28;20041;-27
2022/08/16 11:26:49;;;;;;;5.65;5.10;;;33.60;45.00;;;;;;5072885;28;20033;-26
2022/08/16 11:29:15;;;;;;;4.88;4.22;;;33.80;45.30;;;;;;5072751;28;20041;-27
2022/08/16 11:31:42;;;;;;;4.68;4.30;;;34.10;43.00;;;;;;5072835;28;20363;-27
2022/08/16 11:34:08;;;;;;;6.43;5.70;;;34.10;41.60;;;;;;5072506;28;20065;-26
2022/08/16 11:36:35;;;;;;;6.20;5.68;;;34.20;43.00;;;;;;5072654;28;20041;-28
2022/08/16 11:39:02;;;;;;;6.18;5.57;;;34.20;42.80;;;;;;5072415;28;20414;-28
2022/08/16 11:41:29;;;;;;;6.38;5.10;;;34.30;42.50;;;;;;5072372;28;20062;-27
2022/08/16 11:43:55;;;;;;;6.13;4.60;;;34.10;42.30;;;;;;5085134;28;20037;-27
2022/08/16 11:46:20;;;;;;;4.70;4.30;;;33.80;41.50;;;;;;5072323;28;20174;-27
2022/08/16 11:48:47;;;;;;;5.25;4.85;;;33.70;42.60;;;;;;5072623;28;20036;-27
2022/08/16 11:51:13;;;;;;;5.07;4.65;;;33.80;42.90;;;;;;5072727;28;20036;-26
2022/08/16 11:53:39;;;;;;;4.80;4.40;;;34.00;43.40;;;;;;5072456;28;20513;-29
2022/08/16 11:56:05;;;;;;;4.93;4.43;;;34.10;42.50;;;;;;5072182;28;20037;-27
2022/08/16 11:58:32;;;;;;;5.55;5.05;;;34.40;42.50;;;;;;5072244;28;20102;-28
2022/08/16 12:00:59;;;;;;;5.18;4.57;;;34.60;42.70;;;;;;5072371;28;20102;-27
2022/08/16 12:03:28;;;;;;;4.75;4.32;;;35.00;41.40;;;;;;5077828;28;20075;-29
2022/08/16 12:05:55;;;;;;;4.70;4.30;;;35.40;40.90;;;;;;5072239;28;20478;-26
2022/08/16 12:08:21;;;;;;;5.63;3.95;;;35.50;39.90;;;;;;5072073;28;20052;-27
2022/08/16 12:10:47;;;;;;;4.63;4.28;;;35.30;39.70;;;;;;5072194;28;20180;-27
2022/08/16 12:13:13;;;;;;;5.47;4.97;;;35.30;39.50;;;;;;5072083;28;20044;-26
2022/08/16 12:15:40;;;;;;;5.03;4.50;;;34.90;39.20;;;;;;5071914;28;20494;-27
2022/08/16 12:18:06;;;;;;;4.30;4.00;;;35.10;40.00;;;;;;5072188;28;20423;-26
2022/08/16 12:20:35;;;;;;;4.60;4.20;;;35.10;40.50;;;;;;5071907;28;20072;-27
2022/08/16 12:23:02;;;;;;;4.35;3.97;;;35.50;39.20;;;;;;5071158;28;20037;-28
2022/08/16 12:25:31;;;;;;;4.68;3.72;;;35.30;38.20;;;;;;5055287;28;20101;-27
2022/08/16 12:27:58;;;;;;;3.90;3.50;;;35.30;38.90;;;;;;5071179;28;20044;-27
2022/08/16 12:30:28;;;;;;;4.28;3.92;;;35.50;38.20;;;;;;5072356;28;20047;-27